METAR Formatted Surface Weather Observation
Issued by NWS

Home | Current Version | Previous Version | Text Only | Print | Product List | Glossary On
Versions: 1 2 3 4 5 6 7 8 9 10 11 12 13 14 15 16 17
000
SAUS45 KSLC 280952
MTRU16
METAR KU16 280858Z AUTO 22003KT 10SM CLR 11/07 A3006 RMK
 AO2 SLP802 T01110072 55014 $
05/28/15 03:17:26  SPECI KU16 280917Z AUTO 00000KT 10SM TS BKN110 11/07
A3007 RMK AO2 TSB14 $



USA.gov is the U.S. government's official web portal to all federal, state and local government web resources and services.